createdAt,value
2019-01-11T00:02:29.261Z,6.85
2019-01-11T00:05:16.329Z,6.42
2019-01-11T00:08:03.843Z,5.62
2019-01-11T00:10:51.062Z,5.45
2019-01-11T00:13:37.497Z,6.30
2019-01-11T00:16:17.742Z,6.30
2019-01-11T00:18:58.487Z,8.53
2019-01-11T00:21:38.456Z,6.10
2019-01-11T00:24:18.983Z,6.90
2019-01-11T00:26:59.056Z,6.22
2019-01-11T00:29:39.183Z,6.10
2019-01-11T00:32:19.237Z,6.58
2019-01-11T00:34:58.819Z,7.37
2019-01-11T00:37:39.512Z,7.45
2019-01-11T00:40:38.908Z,8.85
2019-01-11T00:43:18.490Z,9.55
2019-01-11T00:45:58.674Z,10.35
2019-01-11T00:48:38.958Z,9.18
2019-01-11T00:51:19.492Z,9.05
2019-01-11T00:53:59.803Z,7.95
2019-01-11T00:56:40.074Z,11.28
2019-01-11T00:59:19.727Z,13.43
2019-01-11T01:02:00.152Z,7.55
2019-01-11T01:04:40.418Z,8.05
2019-01-11T01:07:20.555Z,8.00
2019-01-11T01:10:00.350Z,8.53
2019-01-11T01:15:49.766Z,10.78
2019-01-11T01:18:49.245Z,10.32
2019-01-11T01:21:29.038Z,11.50
2019-01-11T01:24:28.387Z,8.60
2019-01-11T01:27:07.865Z,7.10
2019-01-11T01:29:48.306Z,8.60
2019-01-11T01:32:30.001Z,9.78
2019-01-11T01:35:10.015Z,10.58
2019-01-11T01:37:50.273Z,11.28
2019-01-11T01:40:29.891Z,9.38
2019-01-11T01:43:10.506Z,7.70
2019-01-11T01:45:50.546Z,7.87
2019-01-11T01:48:30.587Z,9.35
2019-01-11T01:51:10.581Z,8.43
2019-01-11T01:53:51.091Z,8.43
2019-01-11T01:56:31.365Z,7.25
2019-01-11T01:59:11.428Z,11.70
2019-01-11T02:01:51.762Z,9.48
2019-01-11T02:07:39.843Z,8.30
2019-01-11T02:10:19.555Z,10.53
2019-01-11T02:12:59.126Z,8.43
2019-01-11T02:15:39.563Z,8.03
2019-01-11T02:18:19.629Z,8.88
2019-01-11T02:20:59.458Z,8.43
2019-01-11T02:23:39.851Z,8.33
2019-01-11T02:26:19.658Z,7.83
2019-01-11T02:28:59.810Z,8.70
2019-01-11T02:31:40.095Z,8.95
2019-01-11T02:34:20.102Z,8.23
2019-01-11T02:37:00.486Z,8.40
2019-01-11T02:39:40.135Z,9.28
2019-01-11T02:42:20.088Z,10.05
2019-01-11T02:44:59.920Z,10.00
2019-01-11T02:47:39.602Z,8.33
2019-01-11T02:53:28.554Z,9.03
2019-01-11T02:56:08.275Z,10.90
2019-01-11T02:58:48.934Z,9.30
2019-01-11T03:01:28.777Z,8.90
2019-01-11T03:04:08.832Z,8.98
2019-01-11T03:07:08.461Z,9.63
2019-01-11T03:09:48.759Z,13.28
2019-01-11T03:12:28.851Z,8.00
2019-01-11T03:15:08.588Z,7.83
2019-01-11T03:21:08.254Z,10.30
2019-01-11T03:23:48.300Z,11.95
2019-01-11T03:26:28.534Z,10.15
2019-01-11T03:29:08.516Z,10.18
2019-01-11T03:31:48.368Z,8.90
2019-01-11T03:34:28.164Z,7.92
2019-01-11T03:37:08.482Z,8.93
2019-01-11T03:39:48.526Z,8.13
2019-01-11T03:42:28.667Z,9.85
2019-01-11T03:45:09.081Z,11.28
2019-01-11T03:47:48.837Z,8.08
2019-01-11T03:50:16.785Z,15.75
2019-01-11T03:53:03.733Z,9.03
2019-01-11T03:55:50.775Z,10.72
2019-01-11T03:58:38.074Z,10.18
2019-01-11T04:01:24.877Z,7.42
2019-01-11T04:04:11.438Z,7.28
2019-01-11T04:06:58.185Z,7.12
2019-01-11T04:09:44.732Z,9.65
2019-01-11T04:12:31.489Z,10.05
2019-01-11T04:15:18.717Z,9.58
2019-01-11T04:18:18.762Z,9.38
2019-01-11T04:20:57.970Z,8.25
2019-01-11T04:23:37.491Z,10.10
2019-01-11T04:26:17.173Z,11.12
2019-01-11T04:28:57.817Z,8.95
2019-01-11T04:31:37.993Z,10.28
2019-01-11T04:34:18.060Z,9.75
2019-01-11T04:36:57.936Z,11.38
2019-01-11T04:39:37.987Z,9.75
2019-01-11T04:42:18.065Z,11.85
2019-01-11T04:44:58.088Z,7.28
2019-01-11T04:47:38.141Z,7.03
2019-01-11T04:50:18.439Z,6.72
2019-01-11T04:52:58.176Z,10.60
2019-01-11T04:55:38.650Z,10.53
2019-01-11T04:58:18.516Z,9.00
2019-01-11T05:00:58.853Z,8.03
2019-01-11T05:03:38.843Z,7.85
2019-01-11T05:06:19.081Z,9.00
2019-01-11T05:08:58.741Z,7.58
2019-01-11T05:11:38.802Z,10.72
2019-01-11T05:14:19.450Z,7.87
2019-01-11T05:20:18.471Z,11.18
2019-01-11T05:22:58.764Z,7.95
2019-01-11T05:25:39.283Z,7.92
2019-01-11T05:31:38.566Z,7.05
2019-01-11T05:37:23.840Z,9.00
2019-01-11T05:40:03.878Z,13.15
2019-01-11T05:42:44.013Z,8.48
2019-01-11T05:45:23.983Z,11.70
2019-01-11T05:48:04.083Z,9.10
2019-01-11T05:50:44.054Z,9.83
2019-01-11T05:53:24.546Z,8.10
2019-01-11T05:56:08.193Z,14.73
2019-01-11T05:58:52.109Z,11.40
2019-01-11T06:01:32.622Z,10.00
2019-01-11T06:04:32.144Z,10.98
2019-01-11T06:07:31.233Z,9.15
2019-01-11T06:10:10.920Z,15.75
2019-01-11T06:12:51.208Z,8.53
2019-01-11T06:15:31.394Z,13.08
2019-01-11T06:24:39.173Z,12.07
2019-01-11T06:27:19.414Z,9.80
2019-01-11T06:29:59.326Z,10.98
2019-01-11T06:32:39.513Z,12.40
2019-01-11T06:35:19.369Z,8.78
2019-01-11T06:37:59.288Z,10.70
2019-01-11T06:40:39.622Z,15.65
2019-01-11T06:43:19.492Z,14.78
2019-01-11T06:45:59.945Z,11.43
2019-01-11T06:48:43.526Z,10.45
2019-01-11T06:51:23.811Z,11.45
2019-01-11T06:54:03.713Z,13.70
2019-01-11T06:56:43.937Z,19.17
2019-01-11T06:59:24.133Z,10.32
2019-01-11T07:02:04.198Z,11.80
2019-01-11T07:04:43.978Z,12.73
2019-01-11T07:07:24.145Z,11.88
2019-01-11T07:10:04.437Z,11.50
2019-01-11T07:12:44.783Z,13.40
2019-01-11T07:15:24.773Z,13.30
2019-01-11T07:18:04.951Z,12.63
2019-01-11T07:20:45.076Z,16.65
2019-01-11T07:23:24.833Z,15.32
2019-01-11T07:26:04.042Z,16.95
2019-01-11T07:28:44.317Z,11.18
2019-01-11T07:31:27.374Z,17.15
2019-01-11T07:34:07.388Z,15.95
2019-01-11T07:36:49.639Z,17.48
2019-01-11T07:39:30.091Z,14.00
2019-01-11T07:42:10.416Z,16.32
2019-01-11T07:47:58.787Z,15.00
2019-01-11T07:50:39.003Z,14.33
2019-01-11T07:53:18.976Z,14.47
2019-01-11T07:55:59.457Z,15.35
2019-01-11T07:58:39.417Z,16.48
2019-01-11T08:01:19.369Z,17.45
2019-01-11T08:03:59.625Z,20.12
2019-01-11T08:06:39.574Z,18.80
2019-01-11T08:09:19.688Z,21.35
2019-01-11T08:11:59.564Z,18.55
2019-01-11T08:14:39.822Z,17.57
2019-01-11T08:17:19.630Z,20.62
2019-01-11T08:19:59.685Z,16.52
2019-01-11T08:22:40.880Z,17.50
2019-01-11T08:25:21.363Z,16.55
2019-01-11T08:28:01.214Z,20.92
2019-01-11T08:40:02.692Z,17.75
2019-01-11T08:42:42.961Z,20.27
2019-01-11T08:45:22.809Z,17.45
2019-01-11T08:48:02.882Z,20.08
2019-01-11T08:50:42.684Z,22.42
2019-01-11T08:53:20.561Z,20.32
2019-01-11T08:56:08.405Z,19.80
2019-01-11T08:58:56.729Z,19.55
2019-01-11T09:01:43.531Z,22.48
2019-01-11T09:04:30.846Z,19.65
2019-01-11T09:10:51.157Z,23.12
2019-01-11T09:13:18.337Z,18.73
2019-01-11T09:19:07.882Z,28.47
2019-01-11T09:21:48.063Z,26.25
2019-01-11T09:24:28.021Z,28.95
2019-01-11T09:27:08.243Z,30.30
2019-01-11T09:29:48.633Z,34.55
2019-01-11T09:32:28.313Z,32.40
2019-01-11T09:35:08.415Z,37.23
2019-01-11T09:37:48.372Z,31.87
2019-01-11T09:40:28.870Z,35.25
2019-01-11T09:43:08.707Z,31.95
2019-01-11T09:49:08.365Z,32.20
2019-01-11T09:54:53.341Z,27.70
2019-01-11T09:57:33.770Z,29.85
2019-01-11T10:00:13.510Z,29.65
2019-01-11T10:02:56.317Z,25.12
2019-01-11T10:05:42.285Z,25.72
2019-01-11T10:08:21.862Z,29.02
2019-01-11T10:11:01.691Z,33.92
2019-01-11T10:13:41.922Z,26.10
2019-01-11T10:16:21.969Z,23.35
2019-01-11T10:19:02.203Z,23.25
2019-01-11T10:21:42.237Z,19.80
2019-01-11T10:24:22.305Z,21.57
2019-01-11T10:27:02.298Z,35.68
2019-01-11T10:29:42.217Z,23.32
2019-01-11T10:32:22.045Z,22.75
2019-01-11T10:35:02.191Z,23.12
2019-01-11T10:37:42.217Z,27.25
2019-01-11T10:40:22.174Z,19.92
2019-01-11T10:43:02.162Z,25.50
2019-01-11T10:45:41.962Z,21.95
2019-01-11T10:48:22.133Z,20.77
2019-01-11T10:51:02.413Z,23.00
2019-01-11T10:53:42.081Z,22.80
2019-01-11T10:56:22.060Z,20.62
2019-01-11T10:59:01.859Z,19.57
2019-01-11T11:01:42.050Z,18.07
2019-01-11T11:04:21.994Z,19.85
2019-01-11T11:07:02.212Z,15.98
2019-01-11T11:09:42.352Z,17.45
2019-01-11T11:12:23.190Z,20.43
2019-01-11T11:15:03.627Z,15.55
2019-01-11T11:17:44.226Z,14.03
2019-01-11T11:20:23.958Z,15.65
2019-01-11T11:23:03.939Z,15.98
2019-01-11T11:25:44.234Z,18.62
2019-01-11T11:28:24.565Z,14.93
2019-01-11T11:31:04.422Z,18.35
2019-01-11T11:33:44.520Z,14.43
2019-01-11T11:39:33.886Z,15.15
2019-01-11T11:42:16.887Z,14.47
2019-01-11T11:44:56.178Z,13.55
2019-01-11T11:47:36.074Z,15.13
2019-01-11T11:50:16.377Z,16.42
2019-01-11T11:52:56.713Z,16.60
2019-01-11T11:55:36.749Z,15.45
2019-01-11T11:58:16.397Z,13.05
2019-01-11T12:00:56.638Z,14.45
2019-01-11T12:03:36.571Z,12.78
2019-01-11T12:06:16.698Z,15.28
2019-01-11T12:08:56.982Z,14.90
2019-01-11T12:11:36.685Z,16.10
2019-01-11T12:14:17.104Z,12.15
2019-01-11T12:20:02.282Z,14.13
2019-01-11T12:22:42.754Z,12.68
2019-01-11T12:25:22.670Z,14.03
2019-01-11T12:28:02.706Z,13.22
2019-01-11T12:30:42.749Z,16.37
2019-01-11T12:33:22.665Z,13.20
2019-01-11T12:36:02.702Z,11.48
2019-01-11T12:42:02.006Z,12.30
2019-01-11T12:44:41.886Z,13.95
2019-01-11T12:47:22.025Z,13.62
2019-01-11T12:50:02.066Z,13.30
2019-01-11T12:52:42.344Z,14.73
2019-01-11T12:55:21.998Z,12.93
2019-01-11T12:58:02.125Z,14.58
2019-01-11T13:00:42.520Z,10.88
2019-01-11T13:03:22.293Z,11.28
2019-01-11T13:06:02.451Z,11.25
2019-01-11T13:08:42.838Z,14.55
2019-01-11T13:11:22.816Z,11.33
2019-01-11T13:14:02.404Z,12.63
2019-01-11T13:16:42.841Z,11.28
2019-01-11T13:19:22.770Z,11.35
2019-01-11T13:22:03.182Z,11.05
2019-01-11T13:24:42.703Z,12.80
2019-01-11T13:27:23.078Z,11.55
2019-01-11T13:30:03.519Z,12.58
2019-01-11T13:32:43.365Z,11.60
2019-01-11T13:35:23.232Z,12.15
2019-01-11T13:38:03.583Z,12.03
2019-01-11T13:40:43.627Z,13.80
2019-01-11T13:43:23.665Z,11.95
2019-01-11T13:46:03.278Z,13.70
2019-01-11T13:48:43.498Z,11.90
2019-01-11T13:51:23.353Z,13.30
2019-01-11T13:54:04.046Z,11.28
2019-01-11T13:56:44.129Z,14.47
2019-01-11T13:59:24.058Z,14.70
2019-01-11T14:02:04.594Z,11.50
2019-01-11T14:04:44.295Z,9.98
2019-01-11T14:07:24.766Z,11.95
2019-01-11T14:10:04.587Z,13.20
2019-01-11T14:12:44.928Z,11.60
2019-01-11T14:15:25.101Z,11.85
2019-01-11T14:18:06.703Z,12.40
2019-01-11T14:20:46.766Z,11.22
2019-01-11T14:23:27.030Z,11.45
2019-01-11T14:26:07.073Z,9.95
2019-01-11T14:28:46.927Z,16.15
2019-01-11T14:31:26.926Z,11.08
2019-01-11T14:34:07.330Z,11.55
2019-01-11T14:36:47.453Z,10.05
2019-01-11T14:39:27.617Z,19.98
2019-01-11T14:42:07.777Z,12.30
2019-01-11T14:44:47.858Z,14.75
2019-01-11T14:47:27.827Z,13.78
2019-01-11T14:50:08.031Z,10.25
2019-01-11T14:52:48.293Z,13.88
2019-01-11T14:55:28.417Z,12.88
2019-01-11T14:58:08.543Z,11.18
2019-01-11T15:00:48.585Z,11.83
2019-01-11T15:03:28.553Z,13.75
2019-01-11T15:06:08.781Z,10.43
2019-01-11T15:08:48.762Z,14.78
2019-01-11T15:11:28.938Z,12.45
2019-01-11T15:14:09.073Z,12.65
2019-01-11T15:16:48.694Z,10.90
2019-01-11T15:19:28.783Z,12.78
2019-01-11T15:22:08.999Z,304.32
2019-01-11T15:24:49.387Z,221.57
2019-01-11T15:27:29.602Z,134.80
2019-01-11T15:30:09.786Z,94.20
2019-01-11T15:32:49.946Z,133.47
2019-01-11T15:35:29.968Z,305.80
2019-01-11T15:38:09.854Z,352.20
2019-01-11T15:40:50.241Z,131.82
2019-01-11T15:43:30.410Z,108.90
2019-01-11T15:46:15.159Z,18.75
2019-01-11T15:48:54.774Z,11.85
2019-01-11T15:51:34.684Z,13.18
2019-01-11T15:54:14.818Z,11.43
2019-01-11T15:56:54.647Z,12.30
2019-01-11T15:59:35.621Z,11.97
2019-01-11T16:02:16.014Z,11.57
2019-01-11T16:04:56.017Z,10.00
2019-01-11T16:07:36.310Z,11.43
2019-01-11T16:10:16.367Z,12.45
2019-01-11T16:12:56.593Z,10.32
2019-01-11T16:15:36.872Z,13.00
2019-01-11T16:18:17.240Z,11.48
2019-01-11T16:20:57.483Z,11.73
2019-01-11T16:23:37.390Z,9.83
2019-01-11T16:26:17.423Z,9.23
2019-01-11T16:28:57.913Z,10.48
2019-01-11T16:31:37.991Z,10.85
2019-01-11T16:34:18.069Z,10.10
2019-01-11T16:36:58.128Z,12.40
2019-01-11T16:39:38.658Z,10.25
2019-01-11T16:42:19.772Z,13.18
2019-01-11T16:44:59.729Z,15.00
2019-01-11T16:47:39.914Z,11.90
2019-01-11T16:50:19.996Z,12.03
2019-01-11T16:53:00.326Z,11.22
2019-01-11T16:55:40.371Z,12.75
2019-01-11T16:58:20.382Z,12.35
2019-01-11T17:01:00.179Z,11.65
2019-01-11T17:03:40.512Z,10.55
2019-01-11T17:06:20.594Z,10.63
2019-01-11T17:09:00.531Z,11.20
2019-01-11T17:11:40.954Z,9.80
2019-01-11T17:14:20.774Z,11.93
2019-01-11T17:17:01.242Z,11.03
2019-01-11T17:19:41.199Z,12.37
2019-01-11T17:22:21.207Z,10.80
2019-01-11T17:25:01.629Z,11.50
2019-01-11T17:27:41.914Z,11.28
2019-01-11T17:30:21.694Z,14.50
2019-01-11T17:33:01.751Z,13.18
2019-01-11T17:35:42.495Z,11.83
2019-01-11T17:38:22.773Z,11.20
2019-01-11T17:41:03.346Z,9.95
2019-01-11T17:43:43.305Z,10.50
2019-01-11T17:46:23.841Z,9.38
2019-01-11T17:49:03.631Z,10.50
2019-01-11T17:51:43.411Z,11.25
2019-01-11T17:54:23.938Z,9.50
2019-01-11T17:57:03.648Z,9.73
2019-01-11T17:59:43.587Z,11.88
2019-01-11T18:02:24.384Z,11.70
2019-01-11T18:05:04.077Z,11.90
2019-01-11T18:07:44.214Z,11.20
2019-01-11T18:10:24.490Z,11.12
2019-01-11T18:13:04.769Z,10.40
2019-01-11T18:15:44.929Z,9.48
2019-01-11T18:18:25.229Z,11.70
2019-01-11T18:21:05.399Z,10.03
2019-01-11T18:23:45.563Z,10.30
2019-01-11T18:26:25.658Z,9.95
2019-01-11T18:29:05.390Z,8.65
2019-01-11T18:31:44.895Z,9.05
2019-01-11T18:34:24.637Z,9.80
2019-01-11T18:37:05.025Z,10.03
2019-01-11T18:39:45.216Z,9.53
2019-01-11T18:42:25.433Z,22.73
2019-01-11T18:44:53.346Z,11.10
2019-01-11T18:47:40.799Z,8.75
2019-01-11T18:50:28.093Z,8.20
2019-01-11T18:53:15.470Z,9.05
2019-01-11T18:56:05.498Z,9.00
2019-01-11T18:58:51.727Z,8.90
2019-01-11T19:01:19.193Z,8.00
2019-01-11T19:04:06.190Z,8.03
2019-01-11T19:06:52.992Z,7.60
2019-01-11T19:09:40.328Z,9.53
2019-01-11T19:12:27.142Z,9.68
2019-01-11T19:15:33.742Z,8.35
2019-01-11T19:18:14.266Z,9.03
2019-01-11T19:20:54.567Z,7.95
2019-01-11T19:23:34.579Z,7.53
2019-01-11T19:26:14.932Z,9.75
2019-01-11T19:28:54.886Z,10.68
2019-01-11T19:31:34.749Z,8.78
2019-01-11T19:34:15.158Z,6.75
2019-01-11T19:36:55.617Z,8.80
2019-01-11T19:39:23.170Z,9.60
2019-01-11T19:42:10.476Z,9.03
2019-01-11T19:44:57.780Z,8.98
2019-01-11T19:47:45.093Z,8.98
2019-01-11T19:50:31.765Z,10.75
2019-01-11T19:53:18.689Z,7.58
2019-01-11T19:56:05.929Z,8.53
2019-01-11T19:58:53.243Z,8.90
2019-01-11T20:01:40.344Z,7.20
2019-01-11T20:04:27.313Z,8.18
2019-01-11T20:07:14.203Z,7.47
2019-01-11T20:10:01.343Z,8.20
2019-01-11T20:12:28.762Z,8.08
2019-01-11T20:15:16.115Z,6.10
2019-01-11T20:17:56.756Z,9.15
2019-01-11T20:20:36.595Z,8.23
2019-01-11T20:23:17.023Z,7.87
2019-01-11T20:25:57.170Z,6.60
2019-01-11T20:28:37.084Z,7.85
2019-01-11T20:31:17.488Z,8.38
2019-01-11T20:33:57.942Z,7.75
2019-01-11T20:36:38.267Z,9.15
2019-01-11T20:39:18.427Z,8.75
2019-01-11T20:41:59.023Z,7.45
2019-01-11T20:44:38.982Z,7.10
2019-01-11T20:47:19.158Z,7.17
2019-01-11T20:49:59.468Z,6.58
2019-01-11T20:52:39.683Z,8.73
2019-01-11T20:55:19.690Z,7.97
2019-01-11T20:57:59.650Z,8.10
2019-01-11T21:00:40.160Z,7.50
2019-01-11T21:03:19.899Z,6.22
2019-01-11T21:06:00.116Z,7.15
2019-01-11T21:08:40.035Z,8.13
2019-01-11T21:11:20.272Z,8.48
2019-01-11T21:14:00.515Z,8.70
2019-01-11T21:16:40.806Z,9.10
2019-01-11T21:19:20.436Z,8.73
2019-01-11T21:22:01.086Z,8.95
2019-01-11T21:24:41.155Z,9.05
2019-01-11T21:27:21.431Z,9.83
2019-01-11T21:30:01.670Z,9.23
2019-01-11T21:32:41.521Z,7.47
2019-01-11T21:35:21.572Z,8.35
2019-01-11T21:38:01.749Z,8.33
2019-01-11T21:40:41.591Z,8.05
2019-01-11T21:43:21.318Z,7.40
2019-01-11T21:46:03.565Z,8.08
2019-01-11T21:48:43.732Z,12.60
2019-01-11T21:51:23.675Z,13.68
2019-01-11T21:54:04.159Z,17.25
2019-01-11T21:56:43.954Z,21.30
2019-01-11T21:59:24.615Z,18.70
2019-01-11T22:02:04.687Z,9.38
2019-01-11T22:04:44.518Z,9.35
2019-01-11T22:07:25.030Z,8.40
2019-01-11T22:10:04.915Z,7.03
2019-01-11T22:12:44.693Z,8.88
2019-01-11T22:15:24.848Z,12.35
2019-01-11T22:18:05.397Z,9.40
2019-01-11T22:20:44.769Z,8.95
2019-01-11T22:23:25.055Z,8.73
2019-01-11T22:26:05.242Z,8.75
2019-01-11T22:28:45.435Z,10.13
2019-01-11T22:31:25.467Z,9.85
2019-01-11T22:34:05.368Z,12.28
2019-01-11T22:36:44.758Z,10.00
2019-01-11T22:39:25.211Z,7.67
2019-01-11T22:42:05.854Z,7.97
2019-01-11T22:44:45.919Z,8.35
2019-01-11T22:47:25.640Z,10.28
2019-01-11T22:50:05.996Z,9.30
2019-01-11T22:52:46.332Z,9.58
2019-01-11T22:55:26.612Z,8.48
2019-01-11T22:58:06.463Z,8.83
2019-01-11T23:00:48.110Z,8.18
2019-01-11T23:03:28.115Z,9.53
2019-01-11T23:06:09.151Z,7.95
2019-01-11T23:08:48.914Z,6.60
2019-01-11T23:11:29.530Z,8.68
2019-01-11T23:14:09.629Z,7.90
2019-01-11T23:16:50.523Z,8.55
2019-01-11T23:19:30.762Z,8.10
2019-01-11T23:22:10.678Z,7.87
2019-01-11T23:24:50.273Z,9.08
2019-01-11T23:27:30.417Z,8.15
2019-01-11T23:30:10.379Z,10.23
2019-01-11T23:32:50.562Z,7.20
2019-01-11T23:35:30.613Z,6.62
2019-01-11T23:38:11.143Z,6.12
2019-01-11T23:40:51.321Z,6.35
2019-01-11T23:43:31.362Z,6.70
2019-01-11T23:46:11.731Z,8.63
2019-01-11T23:48:52.058Z,9.23
2019-01-11T23:51:31.751Z,6.85
2019-01-11T23:54:11.993Z,7.35
2019-01-11T23:56:52.274Z,7.55
2019-01-11T23:59:32.207Z,7.97
